Time;durP1;ratioP1;P1;durP2;ratioP2;P2;SDS_P1;SDS_P2;PMS_P1;PMS_P2;Temp;Humidity;BMP_temperature;BMP_pressure;BME280_temperature;BME280_humidity;BME280_pressure;Samples;Min_cycle;Max_cycle;Signal;HPM_P1;HPM_P2
2021/05/11 00:01:23;;;;;;;12.00;4.60;;;12.90;99.90;;;;;;5055153;28;20491;-83
2021/05/11 00:03:51;;;;;;;17.25;4.50;;;12.90;99.90;;;;;;5058190;28;20036;-83
2021/05/11 00:06:17;;;;;;;14.40;5.50;;;12.90;99.90;;;;;;5071778;28;20036;-83
2021/05/11 00:08:43;;;;;;;16.85;4.85;;;12.90;99.90;;;;;;5052860;28;20060;-83
2021/05/11 00:11:09;;;;;;;15.65;4.80;;;12.90;99.90;;;;;;5078537;28;20055;-83
2021/05/11 00:13:35;;;;;;;11.50;4.50;;;12.80;99.90;;;;;;5055291;28;20055;-83
2021/05/11 00:16:01;;;;;;;11.93;4.70;;;12.80;99.90;;;;;;5054601;28;20124;-83
2021/05/11 00:18:27;;;;;;;11.60;4.30;;;12.80;99.90;;;;;;5064325;28;20131;-83
2021/05/11 00:20:53;;;;;;;16.42;5.30;;;12.80;99.90;;;;;;5066732;28;20046;-84
2021/05/11 00:23:19;;;;;;;18.85;5.72;;;12.80;99.90;;;;;;5079086;28;20032;-83
2021/05/11 00:25:45;;;;;;;13.38;5.30;;;12.80;99.90;;;;;;5047575;28;20127;-84
2021/05/11 00:28:11;;;;;;;14.75;4.70;;;12.80;99.90;;;;;;5055228;28;20028;-83
2021/05/11 00:30:37;;;;;;;12.30;4.10;;;12.80;99.90;;;;;;5053012;28;20040;-83
2021/05/11 00:33:02;;;;;;;12.88;4.45;;;12.80;99.90;;;;;;5055053;28;20414;-83
2021/05/11 00:35:28;;;;;;;14.57;5.05;;;12.80;99.90;;;;;;5071866;28;20380;-83
2021/05/11 00:37:54;;;;;;;15.35;4.30;;;12.80;99.90;;;;;;5037148;28;20561;-83
2021/05/11 00:40:20;;;;;;;11.85;4.32;;;12.80;99.90;;;;;;5072034;28;20044;-83
2021/05/11 00:42:46;;;;;;;12.25;4.00;;;12.70;99.90;;;;;;5057279;28;20031;-82
2021/05/11 00:45:12;;;;;;;12.38;4.10;;;12.70;99.90;;;;;;5040929;28;20036;-83
2021/05/11 00:47:40;;;;;;;14.18;4.55;;;12.80;99.90;;;;;;5055368;28;20047;-83
2021/05/11 00:50:06;;;;;;;14.93;3.97;;;12.80;99.90;;;;;;5051697;28;20089;-85
2021/05/11 00:52:32;;;;;;;14.50;4.00;;;12.80;99.90;;;;;;5088100;28;20076;-83
2021/05/11 00:54:59;;;;;;;14.82;4.03;;;12.70;99.90;;;;;;5044661;28;20064;-83
2021/05/11 00:57:25;;;;;;;14.65;4.15;;;12.80;99.90;;;;;;5065572;28;20479;-82
2021/05/11 00:59:53;;;;;;;12.15;4.15;;;12.80;99.90;;;;;;5084968;28;20032;-83
2021/05/11 01:02:23;;;;;;;14.05;4.00;;;12.70;99.90;;;;;;5076095;28;20036;-83
2021/05/11 01:04:49;;;;;;;15.30;3.80;;;12.70;99.90;;;;;;5099812;28;20028;-82
2021/05/11 01:07:15;;;;;;;12.25;4.65;;;12.70;99.90;;;;;;5088326;28;20849;-82
2021/05/11 01:09:42;;;;;;;11.77;3.95;;;12.70;99.90;;;;;;5101390;28;20118;-82
2021/05/11 01:12:08;;;;;;;15.07;4.22;;;12.70;99.90;;;;;;5088650;28;20514;-83
2021/05/11 01:14:34;;;;;;;16.15;4.32;;;12.70;99.90;;;;;;5043076;28;20029;-83
2021/05/11 01:17:01;;;;;;;11.48;4.45;;;12.70;99.90;;;;;;5088601;28;20043;-82
2021/05/11 01:19:48;;;;;;;14.43;4.55;;;12.70;99.90;;;;;;5054176;28;20085;-83
2021/05/11 01:24:47;;;;;;;14.40;4.47;;;12.70;99.90;;;;;;5096302;28;20115;-82
2021/05/11 01:32:26;;;;;;;12.38;4.55;;;12.70;99.90;;;;;;5096341;28;20069;-82
2021/05/11 01:56:25;;;;;;;16.65;4.10;;;12.70;99.90;;;;;;5073894;28;20039;-83
2021/05/11 02:23:17;;;;;;;12.40;4.43;;;12.60;99.90;;;;;;5072589;28;20505;-83
2021/05/11 02:25:43;;;;;;;14.45;3.97;;;12.60;99.90;;;;;;5088501;28;20028;-84
2021/05/11 02:28:09;;;;;;;12.32;4.20;;;12.60;99.90;;;;;;5077511;28;20544;-84
2021/05/11 02:30:35;;;;;;;14.95;4.53;;;12.60;99.90;;;;;;5054096;28;20597;-84
2021/05/11 02:33:02;;;;;;;15.10;3.80;;;12.60;99.90;;;;;;5070321;28;20675;-84
2021/05/11 02:35:28;;;;;;;11.10;3.63;;;12.60;99.90;;;;;;5072461;28;20039;-83
2021/05/11 02:37:54;;;;;;;11.88;3.70;;;12.60;99.90;;;;;;5069865;28;20036;-82
2021/05/11 02:40:21;;;;;;;14.43;3.40;;;12.60;99.90;;;;;;5087501;28;20062;-84
2021/05/11 02:42:50;;;;;;;9.02;4.03;;;12.60;99.90;;;;;;5070923;28;20119;-83
2021/05/11 02:45:16;;;;;;;10.88;3.42;;;12.60;99.90;;;;;;5058523;28;20496;-83
2021/05/11 02:47:50;;;;;;;10.48;3.13;;;12.60;99.90;;;;;;5054144;28;20440;-84
2021/05/11 02:50:24;;;;;;;12.38;3.20;;;12.60;99.90;;;;;;5050403;28;20073;-83
2021/05/11 02:52:51;;;;;;;11.05;3.10;;;12.50;99.90;;;;;;5068047;28;20110;-83
2021/05/11 02:55:18;;;;;;;11.20;3.50;;;12.50;99.90;;;;;;5067132;28;20036;-82
2021/05/11 02:57:45;;;;;;;14.95;3.40;;;12.50;99.90;;;;;;5077469;28;20028;-84
2021/05/11 03:00:14;;;;;;;11.98;3.33;;;12.50;99.90;;;;;;5060111;28;20075;-83
2021/05/11 03:02:40;;;;;;;13.90;3.50;;;12.50;99.90;;;;;;5087186;28;20495;-83
2021/05/11 03:05:07;;;;;;;10.52;3.35;;;12.50;99.90;;;;;;5055471;28;20039;-83
2021/05/11 03:07:33;;;;;;;14.85;3.78;;;12.50;99.90;;;;;;5070499;28;20502;-82
2021/05/11 03:10:00;;;;;;;14.23;3.40;;;12.50;99.90;;;;;;5069853;28;20159;-83
2021/05/11 03:12:30;;;;;;;13.27;3.95;;;12.50;99.90;;;;;;5069104;28;20044;-83
2021/05/11 03:14:55;;;;;;;11.55;3.50;;;12.50;99.90;;;;;;5056564;28;20032;-82
2021/05/11 03:17:21;;;;;;;12.35;3.83;;;12.50;99.90;;;;;;5070427;28;20036;-82
2021/05/11 03:19:47;;;;;;;12.68;3.97;;;12.50;99.90;;;;;;5081774;28;20466;-82
2021/05/11 03:22:13;;;;;;;10.20;3.60;;;12.50;99.90;;;;;;5074880;28;20048;-83
2021/05/11 03:24:44;;;;;;;16.50;3.70;;;12.50;99.90;;;;;;5052324;28;20036;-83
2021/05/11 03:27:11;;;;;;;12.20;3.55;;;12.50;99.90;;;;;;5060054;28;20066;-83
2021/05/11 03:29:37;;;;;;;7.47;3.28;;;12.50;99.90;;;;;;5076221;28;20578;-83
2021/05/11 03:32:03;;;;;;;11.93;5.35;;;12.50;99.90;;;;;;5068741;28;20191;-83
2021/05/11 03:34:30;;;;;;;9.80;3.70;;;12.50;99.90;;;;;;5069588;28;20040;-82
2021/05/11 03:36:56;;;;;;;9.75;3.20;;;12.50;99.90;;;;;;5076087;28;20046;-82
2021/05/11 03:39:22;;;;;;;7.43;3.00;;;12.50;99.90;;;;;;5080063;28;20028;-83
2021/05/11 03:41:53;;;;;;;11.65;3.38;;;12.50;99.90;;;;;;5078106;28;20044;-83
2021/05/11 03:44:22;;;;;;;11.57;2.78;;;12.50;99.90;;;;;;5033711;28;20036;-83
2021/05/11 03:46:48;;;;;;;9.63;2.88;;;12.50;99.90;;;;;;5045543;28;20743;-82
2021/05/11 03:49:14;;;;;;;12.73;3.42;;;12.50;99.90;;;;;;5050016;28;20032;-83
2021/05/11 03:51:40;;;;;;;10.75;3.58;;;12.50;99.90;;;;;;5074144;28;20033;-83
2021/05/11 03:54:07;;;;;;;10.90;3.10;;;12.50;99.90;;;;;;5095874;28;20040;-83
2021/05/11 03:56:33;;;;;;;11.30;3.00;;;12.40;99.90;;;;;;5090194;28;20438;-83
2021/05/11 03:58:59;;;;;;;10.98;3.30;;;12.40;99.90;;;;;;5072487;28;20088;-82
2021/05/11 04:01:25;;;;;;;12.05;3.40;;;12.50;99.90;;;;;;5097777;28;20046;-83
2021/05/11 04:03:51;;;;;;;10.38;3.00;;;12.50;99.90;;;;;;5062671;28;20036;-83
2021/05/11 04:06:17;;;;;;;10.63;3.40;;;12.50;99.90;;;;;;5087374;28;20036;-82
2021/05/11 04:16:24;;;;;;;10.48;3.33;;;12.60;99.90;;;;;;5071969;28;20035;-82
2021/05/11 04:18:51;;;;;;;11.65;3.53;;;12.60;99.90;;;;;;5073659;28;20100;-82
2021/05/11 04:21:18;;;;;;;12.50;3.50;;;12.50;99.90;;;;;;5072149;28;20044;-83
2021/05/11 04:23:45;;;;;;;10.68;3.40;;;12.60;99.90;;;;;;5035612;28;20388;-83
2021/05/11 04:26:11;;;;;;;10.77;3.55;;;12.60;99.90;;;;;;5070639;28;20059;-82
2021/05/11 04:28:37;;;;;;;9.75;3.35;;;12.60;99.90;;;;;;5073750;28;20035;-83
2021/05/11 04:31:04;;;;;;;10.30;3.72;;;12.60;99.90;;;;;;5100833;28;20031;-83
2021/05/11 04:33:30;;;;;;;16.05;3.80;;;12.60;99.90;;;;;;5081923;28;20032;-82
2021/05/11 04:35:56;;;;;;;14.60;3.90;;;12.60;99.90;;;;;;5051149;28;20033;-82
2021/05/11 04:38:22;;;;;;;11.43;3.75;;;12.60;99.90;;;;;;5071773;28;20058;-82
2021/05/11 04:40:50;;;;;;;13.77;4.32;;;12.60;99.90;;;;;;5067687;28;20790;-83
2021/05/11 04:43:17;;;;;;;13.80;4.97;;;12.60;99.90;;;;;;5091047;28;20036;-83
2021/05/11 04:45:42;;;;;;;13.70;4.40;;;12.60;99.90;;;;;;5071643;28;20089;-83
2021/05/11 04:48:09;;;;;;;17.40;4.35;;;12.50;99.90;;;;;;5071789;28;20044;-83
2021/05/11 04:50:35;;;;;;;10.38;3.75;;;12.50;99.90;;;;;;5071816;28;20036;-83
2021/05/11 04:53:02;;;;;;;14.15;4.07;;;12.50;99.90;;;;;;5071107;28;20051;-83
2021/05/11 04:55:28;;;;;;;10.18;3.55;;;12.50;99.90;;;;;;5051593;28;20040;-84
2021/05/11 04:57:54;;;;;;;10.15;3.72;;;12.40;99.90;;;;;;5100624;27;20114;-82
2021/05/11 05:00:21;;;;;;;17.00;5.20;;;12.40;99.90;;;;;;5073499;28;20589;-81
2021/05/11 05:02:48;;;;;;;12.27;4.30;;;12.40;99.90;;;;;;5072926;28;20139;-82
2021/05/11 05:05:15;;;;;;;14.95;5.15;;;12.40;99.90;;;;;;5077853;28;20032;-82
2021/05/11 05:07:41;;;;;;;11.88;4.28;;;12.40;99.90;;;;;;5088063;28;20035;-82
2021/05/11 05:10:09;;;;;;;12.52;4.80;;;12.40;99.90;;;;;;5067484;28;20047;-82
2021/05/11 05:12:36;;;;;;;9.45;4.20;;;12.40;99.90;;;;;;5071196;28;20380;-82
2021/05/11 05:15:03;;;;;;;12.43;4.28;;;12.40;99.90;;;;;;5069417;28;20036;-82
2021/05/11 05:17:29;;;;;;;14.00;4.65;;;12.40;99.90;;;;;;5055082;28;20032;-82
2021/05/11 05:19:56;;;;;;;8.15;3.75;;;12.40;99.90;;;;;;5066641;28;20123;-81
2021/05/11 05:22:22;;;;;;;9.93;4.75;;;12.40;99.90;;;;;;5104694;28;20127;-82
2021/05/11 05:24:59;;;;;;;11.52;5.05;;;12.40;99.90;;;;;;5075387;28;20061;-81
2021/05/11 05:27:43;;;;;;;13.30;5.45;;;12.50;99.90;;;;;;5059703;28;20031;-82
2021/05/11 05:30:10;;;;;;;10.50;5.10;;;12.50;99.90;;;;;;5069893;28;20088;-82
2021/05/11 05:32:36;;;;;;;11.23;5.22;;;12.50;99.90;;;;;;5052606;28;20032;-82
2021/05/11 05:35:02;;;;;;;13.65;5.13;;;12.60;99.90;;;;;;5051746;28;20039;-82
2021/05/11 05:37:28;;;;;;;13.57;5.60;;;12.50;99.90;;;;;;5051460;28;20032;-81
2021/05/11 05:39:58;;;;;;;14.05;6.25;;;12.60;99.90;;;;;;5070409;28;20146;-82
2021/05/11 05:42:23;;;;;;;13.35;6.28;;;12.60;99.90;;;;;;5050707;28;20071;-82
2021/05/11 05:44:49;;;;;;;15.50;6.20;;;12.70;99.90;;;;;;5054056;28;20807;-82
2021/05/11 05:47:21;;;;;;;16.77;7.50;;;12.70;99.90;;;;;;5068496;28;20028;-82
2021/05/11 05:49:49;;;;;;;12.02;7.93;;;12.70;99.90;;;;;;5051536;28;20055;-82
2021/05/11 05:52:23;;;;;;;15.50;8.10;;;12.80;99.90;;;;;;5051811;28;20052;-82
2021/05/11 05:54:52;;;;;;;17.13;8.93;;;12.80;99.90;;;;;;5061383;28;20502;-81
2021/05/11 05:57:18;;;;;;;18.10;7.85;;;12.80;99.90;;;;;;5047305;28;20029;-82
2021/05/11 05:59:44;;;;;;;14.57;7.85;;;12.90;99.90;;;;;;5071360;28;20044;-82
2021/05/11 06:02:18;;;;;;;16.55;8.15;;;12.90;99.90;;;;;;5041461;28;20047;-82
2021/05/11 06:05:04;;;;;;;15.75;9.15;;;12.90;99.90;;;;;;5047812;28;20043;-82
2021/05/11 06:07:37;;;;;;;15.80;8.55;;;12.90;99.90;;;;;;5054633;28;20043;-82
2021/05/11 06:10:03;;;;;;;21.25;9.13;;;13.00;99.90;;;;;;5046103;28;20040;-82
2021/05/11 06:12:40;;;;;;;19.65;9.25;;;13.00;99.90;;;;;;5054933;28;20040;-82
2021/05/11 06:17:37;;;;;;;17.38;8.93;;;13.10;99.90;;;;;;5078493;28;20036;-82
2021/05/11 06:20:04;;;;;;;18.70;10.57;;;13.10;99.90;;;;;;5055855;28;20105;-83
2021/05/11 06:22:30;;;;;;;13.05;9.32;;;13.20;99.90;;;;;;5078045;28;20032;-83
2021/05/11 06:24:56;;;;;;;17.45;9.50;;;13.20;99.90;;;;;;5030903;28;20043;-83
2021/05/11 06:27:22;;;;;;;17.60;10.48;;;13.20;99.90;;;;;;5068138;28;20033;-83
2021/05/11 06:29:56;;;;;;;16.77;10.20;;;13.30;99.90;;;;;;5075752;28;20058;-83
2021/05/11 06:32:22;;;;;;;16.42;10.23;;;13.40;99.90;;;;;;5080342;28;20113;-83
2021/05/11 06:35:04;;;;;;;24.80;11.45;;;13.50;99.90;;;;;;5025723;28;20633;-82
2021/05/11 06:37:30;;;;;;;18.25;10.35;;;13.60;99.90;;;;;;5072051;28;20040;-83
2021/05/11 06:39:57;;;;;;;17.10;9.48;;;13.60;99.90;;;;;;5054365;28;20476;-82
2021/05/11 06:42:25;;;;;;;19.92;10.50;;;13.70;99.90;;;;;;5097344;28;20713;-82
2021/05/11 06:48:02;;;;;;;15.32;9.85;;;13.80;99.90;;;;;;5073357;28;20475;-83
2021/05/11 06:55:28;;;;;;;15.00;9.13;;;13.80;99.90;;;;;;5074529;28;20040;-82
2021/05/11 06:57:54;;;;;;;15.18;10.23;;;13.90;99.90;;;;;;5041375;28;20047;-83
2021/05/11 07:00:20;;;;;;;17.20;10.00;;;13.90;99.90;;;;;;5062790;28;20048;-83
2021/05/11 07:02:47;;;;;;;19.58;9.73;;;14.00;99.90;;;;;;5064686;28;20028;-84
2021/05/11 07:05:13;;;;;;;15.45;9.15;;;14.00;99.90;;;;;;5095997;28;20039;-83
2021/05/11 07:07:41;;;;;;;13.02;9.65;;;14.00;99.90;;;;;;5080110;28;20117;-83
2021/05/11 07:10:21;;;;;;;14.20;10.27;;;14.00;99.90;;;;;;5077055;28;20027;-85
2021/05/11 07:15:32;;;;;;;15.13;9.50;;;14.10;99.90;;;;;;5080258;28;20486;-83
2021/05/11 07:18:05;;;;;;;14.65;8.93;;;14.20;99.90;;;;;;5054592;28;20040;-84
2021/05/11 07:20:31;;;;;;;14.43;8.55;;;14.20;99.90;;;;;;5061584;28;20027;-83
2021/05/11 07:22:57;;;;;;;10.50;8.32;;;14.30;99.90;;;;;;5063095;28;20457;-83
2021/05/11 07:25:25;;;;;;;13.68;8.60;;;14.40;99.90;;;;;;5079843;28;20036;-83
2021/05/11 07:28:20;;;;;;;13.88;8.70;;;14.40;99.90;;;;;;5066266;28;20066;-83
2021/05/11 07:30:36;;;;;;;12.45;8.30;;;14.50;99.90;;;;;;5099446;28;20036;-83
2021/05/11 07:33:07;;;;;;;10.75;8.60;;;14.50;99.90;;;;;;5082227;28;20032;-83
2021/05/11 07:35:35;;;;;;;11.35;8.07;;;14.60;99.90;;;;;;5059992;28;20050;-83
2021/05/11 07:38:01;;;;;;;11.13;7.43;;;14.60;99.90;;;;;;5062153;28;20132;-83
2021/05/11 07:40:27;;;;;;;10.25;6.97;;;14.70;99.90;;;;;;5063770;28;20136;-83
2021/05/11 07:42:52;;;;;;;11.02;7.45;;;14.70;99.90;;;;;;5057648;28;20035;-83
2021/05/11 07:48:46;;;;;;;9.57;6.80;;;14.90;99.90;;;;;;5022410;28;20420;-83
2021/05/11 08:15:50;;;;;;;5.65;4.30;;;14.90;99.90;;;;;;5068588;28;20047;-83
2021/05/11 08:18:17;;;;;;;8.10;4.32;;;14.90;99.90;;;;;;5072238;28;20502;-83
2021/05/11 08:28:43;;;;;;;5.55;4.53;;;14.90;99.90;;;;;;5106383;28;20039;-83
2021/05/11 08:31:08;;;;;;;6.43;3.53;;;15.00;99.90;;;;;;5076264;28;20070;-83
2021/05/11 08:33:34;;;;;;;5.15;3.50;;;15.10;99.90;;;;;;5086177;28;20055;-84
2021/05/11 08:36:00;;;;;;;4.22;3.03;;;15.20;99.90;;;;;;5074750;28;20039;-83
2021/05/11 08:38:27;;;;;;;5.07;3.45;;;15.30;99.90;;;;;;5075518;28;20033;-83
2021/05/11 08:40:53;;;;;;;5.07;3.20;;;15.30;99.90;;;;;;5065219;28;20039;-83
2021/05/11 08:43:37;;;;;;;4.85;3.30;;;15.30;99.90;;;;;;5103562;28;20077;-83
2021/05/11 08:46:07;;;;;;;3.13;2.53;;;15.40;99.90;;;;;;5089383;28;20063;-83
2021/05/11 08:48:34;;;;;;;3.40;2.72;;;15.40;99.90;;;;;;5072142;28;20113;-83
2021/05/11 08:51:14;;;;;;;5.05;3.15;;;15.50;99.90;;;;;;5087562;28;20040;-83
2021/05/11 09:04:53;;;;;;;4.68;2.40;;;15.70;99.90;;;;;;5058279;28;20032;-83
2021/05/11 09:26:54;;;;;;;3.25;2.00;;;16.20;99.90;;;;;;5105083;28;20146;-83
2021/05/11 09:54:34;;;;;;;2.58;1.77;;;16.70;99.90;;;;;;5090232;28;20039;-83
2021/05/11 10:36:32;;;;;;;1.98;1.60;;;17.60;99.90;;;;;;5088664;28;20047;-84
2021/05/11 10:47:01;;;;;;;2.92;1.52;;;17.60;99.90;;;;;;5094724;28;20436;-84
2021/05/11 10:49:32;;;;;;;1.80;1.45;;;17.60;99.90;;;;;;5057066;28;20035;-84
2021/05/11 10:52:08;;;;;;;2.47;1.58;;;17.60;99.90;;;;;;5069706;28;20048;-83
2021/05/11 10:54:37;;;;;;;2.28;1.45;;;17.60;99.90;;;;;;5069267;28;20051;-83
2021/05/11 10:57:09;;;;;;;4.25;1.20;;;17.60;99.90;;;;;;5089954;28;20032;-82
2021/05/11 10:59:47;;;;;;;1.83;1.40;;;17.70;99.90;;;;;;5070418;28;20034;-83
2021/05/11 11:02:27;;;;;;;2.90;1.30;;;17.70;99.90;;;;;;5052154;28;20495;-83
2021/05/11 11:04:53;;;;;;;2.33;1.23;;;17.80;99.90;;;;;;5090730;28;20122;-83
2021/05/11 11:07:40;;;;;;;2.47;1.20;;;17.80;99.90;;;;;;5078863;28;20039;-84
2021/05/11 11:10:09;;;;;;;2.42;1.10;;;17.80;99.90;;;;;;5068875;28;20074;-83
2021/05/11 11:12:39;;;;;;;3.10;1.20;;;17.70;99.90;;;;;;5062531;28;20044;-83
2021/05/11 11:15:18;;;;;;;2.47;1.35;;;17.70;99.90;;;;;;5069030;28;20114;-83
2021/05/11 11:17:52;;;;;;;1.58;1.05;;;17.80;99.90;;;;;;5093615;28;20046;-83
2021/05/11 11:20:21;;;;;;;1.98;1.00;;;17.80;99.90;;;;;;5070656;28;20392;-83
2021/05/11 11:26:07;;;;;;;3.03;1.17;;;18.00;99.90;;;;;;5101016;28;20036;-83
2021/05/11 11:28:33;;;;;;;2.47;1.35;;;18.10;99.90;;;;;;5102415;28;20060;-83
2021/05/11 11:30:59;;;;;;;2.58;1.13;;;18.20;99.90;;;;;;5052453;28;20072;-83
2021/05/11 11:33:24;;;;;;;2.10;1.15;;;18.20;99.90;;;;;;5063535;28;20032;-84
2021/05/11 11:35:50;;;;;;;2.10;1.30;;;18.20;99.90;;;;;;5079517;28;20032;-83
2021/05/11 11:38:22;;;;;;;3.13;1.00;;;18.10;99.90;;;;;;5062457;28;20551;-83
2021/05/11 11:40:56;;;;;;;2.17;1.00;;;18.00;99.90;;;;;;5067179;28;20036;-83
2021/05/11 11:43:27;;;;;;;2.30;1.10;;;17.80;99.90;;;;;;5077745;28;20281;-83
2021/05/11 11:45:53;;;;;;;3.60;1.70;;;17.70;99.90;;;;;;5081368;28;20043;-83
2021/05/11 11:48:21;;;;;;;3.75;1.33;;;17.60;99.90;;;;;;5100793;28;20115;-83
2021/05/11 11:51:02;;;;;;;1.98;1.20;;;17.60;99.90;;;;;;5064142;28;20135;-83
2021/05/11 11:53:32;;;;;;;1.30;1.00;;;17.40;99.90;;;;;;5062427;28;20053;-83
2021/05/11 11:58:32;;;;;;;2.78;1.05;;;17.20;99.90;;;;;;5069599;28;20044;-83
2021/05/11 12:00:58;;;;;;;2.17;1.20;;;17.10;99.90;;;;;;5033273;28;20059;-83
2021/05/11 12:03:24;;;;;;;4.22;1.52;;;17.00;99.90;;;;;;5055296;28;20479;-82
2021/05/11 12:05:53;;;;;;;2.45;0.90;;;16.90;99.90;;;;;;5081555;28;20113;-82
2021/05/11 12:08:26;;;;;;;1.48;0.70;;;16.80;99.90;;;;;;5085067;28;20074;-83
2021/05/11 12:10:58;;;;;;;1.85;0.70;;;16.80;99.90;;;;;;5063486;28;20040;-82
2021/05/11 12:13:29;;;;;;;2.58;0.70;;;16.70;99.90;;;;;;5088815;28;20032;-83
2021/05/11 12:16:12;;;;;;;1.73;0.80;;;16.60;99.90;;;;;;5049384;28;20549;-82
2021/05/11 12:18:55;;;;;;;3.63;1.58;;;16.60;99.90;;;;;;5071737;28;20036;-82
2021/05/11 12:21:21;;;;;;;2.10;0.77;;;16.50;99.90;;;;;;5081152;28;20041;-82
2021/05/11 12:23:47;;;;;;;4.13;0.93;;;16.50;99.90;;;;;;5051692;28;20541;-82
2021/05/11 12:26:19;;;;;;;2.15;0.60;;;16.50;99.90;;;;;;5083757;28;20032;-82
2021/05/11 12:28:45;;;;;;;2.70;0.70;;;16.50;99.90;;;;;;5055311;28;20525;-83
2021/05/11 12:31:12;;;;;;;2.38;0.70;;;16.50;99.90;;;;;;5045586;28;20029;-83
2021/05/11 12:33:43;;;;;;;1.60;0.80;;;16.60;99.90;;;;;;5050334;28;20049;-83
2021/05/11 12:36:23;;;;;;;8.00;1.40;;;16.60;99.90;;;;;;5068701;28;20131;-82
2021/05/11 12:39:10;;;;;;;2.80;0.65;;;16.60;99.90;;;;;;5068535;28;20047;-83
2021/05/11 12:41:36;;;;;;;1.58;0.85;;;16.70;99.90;;;;;;5077277;28;20074;-82
2021/05/11 12:44:04;;;;;;;1.58;0.70;;;16.80;99.90;;;;;;5080866;28;20060;-83
2021/05/11 12:46:38;;;;;;;2.72;0.70;;;16.90;99.90;;;;;;5042612;28;20044;-83
2021/05/11 12:49:19;;;;;;;2.65;0.85;;;17.10;99.90;;;;;;5069508;28;20048;-83
2021/05/11 12:51:54;;;;;;;1.52;0.77;;;17.30;99.90;;;;;;5078269;28;20056;-82
2021/05/11 12:54:30;;;;;;;12.30;1.48;;;17.40;99.90;;;;;;5051165;28;20048;-83
2021/05/11 13:28:29;;;;;;;8.40;1.50;;;17.40;99.90;;;;;;5059287;28;20040;-82
2021/05/11 13:33:29;;;;;;;8.68;1.40;;;17.40;99.90;;;;;;5082553;28;20034;-83
2021/05/11 13:35:55;;;;;;;9.60;1.98;;;17.50;99.90;;;;;;5075455;28;20403;-83
2021/05/11 13:38:22;;;;;;;1.52;1.05;;;17.60;99.90;;;;;;5083726;28;20028;-83
2021/05/11 13:40:49;;;;;;;3.03;0.90;;;17.70;99.90;;;;;;5053964;28;20075;-83
2021/05/11 13:43:16;;;;;;;1.10;0.80;;;17.70;99.90;;;;;;5055521;28;20036;-84
2021/05/11 13:45:42;;;;;;;2.08;1.30;;;17.80;99.90;;;;;;5050923;28;20033;-83
2021/05/11 13:48:16;;;;;;;4.75;1.38;;;17.80;99.90;;;;;;5067556;28;20036;-83
2021/05/11 13:50:54;;;;;;;2.13;1.08;;;17.80;99.90;;;;;;5052371;28;20141;-84
2021/05/11 13:53:26;;;;;;;3.40;1.10;;;17.90;99.90;;;;;;5039414;28;20040;-82
2021/05/11 14:03:48;;;;;;;2.22;1.40;;;18.00;99.90;;;;;;5056888;28;20043;-83
2021/05/11 14:06:14;;;;;;;1.88;1.27;;;18.00;99.90;;;;;;5031370;28;20056;-83
2021/05/11 14:08:40;;;;;;;2.53;1.50;;;18.00;99.90;;;;;;5065097;28;20028;-84
2021/05/11 14:11:06;;;;;;;2.70;1.63;;;18.00;99.90;;;;;;5061895;28;20048;-83
2021/05/11 14:13:32;;;;;;;3.42;1.55;;;18.00;99.90;;;;;;5058225;28;20085;-83
2021/05/11 14:15:58;;;;;;;3.30;1.77;;;18.00;99.90;;;;;;5041535;28;20545;-82
2021/05/11 14:18:24;;;;;;;2.00;1.77;;;18.00;99.90;;;;;;5037346;28;20032;-82
2021/05/11 14:20:50;;;;;;;4.60;1.73;;;17.90;99.90;;;;;;5043473;28;20075;-83
2021/05/11 14:23:17;;;;;;;2.33;1.80;;;17.90;99.90;;;;;;5062227;28;20499;-83
2021/05/11 14:25:43;;;;;;;3.20;1.90;;;17.90;99.90;;;;;;5043435;28;20135;-83
2021/05/11 14:28:09;;;;;;;2.92;1.92;;;18.00;99.90;;;;;;5034142;28;20055;-83
2021/05/11 14:30:35;;;;;;;5.13;1.63;;;18.10;99.90;;;;;;5037864;28;20041;-83
2021/05/11 14:33:02;;;;;;;3.05;1.50;;;18.30;99.90;;;;;;5035914;28;20036;-83
2021/05/11 14:35:28;;;;;;;1.52;1.10;;;18.40;99.90;;;;;;5042381;28;20136;-83
2021/05/11 14:37:54;;;;;;;1.10;0.70;;;18.50;99.90;;;;;;5032965;28;20140;-82
2021/05/11 14:40:20;;;;;;;3.25;0.95;;;18.50;99.90;;;;;;5066016;28;20135;-83
2021/05/11 14:42:47;;;;;;;2.25;1.02;;;18.50;99.90;;;;;;5071953;28;20040;-82
2021/05/11 14:45:13;;;;;;;2.22;1.15;;;18.50;99.90;;;;;;5034367;28;20033;-83
2021/05/11 14:47:45;;;;;;;2.63;1.10;;;18.50;99.90;;;;;;5055925;28;20507;-82
2021/05/11 14:50:13;;;;;;;1.95;1.40;;;18.50;99.90;;;;;;5076175;28;20036;-83
2021/05/11 14:52:40;;;;;;;2.47;1.30;;;18.50;99.90;;;;;;5079439;28;20040;-82
2021/05/11 14:55:07;;;;;;;1.92;1.20;;;18.50;99.90;;;;;;5075937;28;20485;-82
2021/05/11 14:57:33;;;;;;;4.03;1.70;;;18.50;99.90;;;;;;5080102;28;20127;-82
2021/05/11 14:59:58;;;;;;;2.40;1.35;;;18.50;99.90;;;;;;5058820;28;20548;-82
2021/05/11 15:02:24;;;;;;;2.80;1.80;;;18.40;99.90;;;;;;5077811;28;20051;-82
2021/05/11 15:04:51;;;;;;;2.85;1.80;;;18.40;99.90;;;;;;5066804;28;20046;-82
2021/05/11 15:07:17;;;;;;;1.60;1.10;;;18.40;99.90;;;;;;5051429;28;20135;-82
2021/05/11 15:09:43;;;;;;;2.72;1.08;;;18.40;99.90;;;;;;5054105;28;20549;-82
2021/05/11 15:12:09;;;;;;;2.10;1.10;;;18.50;99.90;;;;;;5069051;28;20048;-82
2021/05/11 15:14:35;;;;;;;1.88;1.20;;;18.50;99.90;;;;;;5076565;28;20038;-82
2021/05/11 15:18:04;;;;;;;6.47;1.20;;;18.50;99.90;;;;;;5071263;28;20033;-82
2021/05/11 15:19:58;;;;;;;2.85;1.00;;;18.50;99.90;;;;;;5058932;28;20075;-82
2021/05/11 16:13:43;;;;;;;3.53;3.15;;;15.60;99.90;;;;;;5081791;28;20063;-83
2021/05/11 16:16:13;;;;;;;4.15;3.20;;;15.30;99.90;;;;;;5055204;28;20039;-84
2021/05/11 16:18:43;;;;;;;2.92;2.10;;;15.20;99.90;;;;;;5078418;28;20027;-82
2021/05/11 16:21:08;;;;;;;4.10;1.40;;;15.10;99.90;;;;;;5056475;28;20093;-83
2021/05/11 16:23:34;;;;;;;2.17;0.82;;;14.90;99.90;;;;;;5073802;28;20039;-83
2021/05/11 16:26:00;;;;;;;3.80;0.70;;;14.80;99.90;;;;;;5080330;28;20479;-82
2021/05/11 16:28:26;;;;;;;0.70;0.65;;;14.70;99.90;;;;;;5071743;28;20494;-83
2021/05/11 16:30:52;;;;;;;4.00;0.98;;;14.60;99.90;;;;;;5080374;28;20036;-83
2021/05/11 16:33:17;;;;;;;3.03;1.00;;;14.50;99.90;;;;;;5054141;28;20121;-83
2021/05/11 16:35:44;;;;;;;4.50;1.40;;;14.40;99.90;;;;;;5040671;28;20071;-83
2021/05/11 16:38:11;;;;;;;4.70;1.40;;;14.40;99.90;;;;;;5069284;28;20085;-83
2021/05/11 16:40:37;;;;;;;3.53;1.27;;;14.40;99.90;;;;;;5060546;28;20140;-84
2021/05/11 16:43:03;;;;;;;3.53;1.40;;;14.40;99.90;;;;;;5069757;28;20542;-83
2021/05/11 16:45:30;;;;;;;1.55;1.08;;;14.30;99.90;;;;;;5031062;28;20680;-83
2021/05/11 16:47:56;;;;;;;2.22;1.60;;;14.20;99.90;;;;;;5052591;28;20032;-83
2021/05/11 16:50:25;;;;;;;6.03;1.70;;;14.20;99.90;;;;;;5046812;28;20122;-83
2021/05/11 16:52:52;;;;;;;5.80;2.05;;;14.10;99.90;;;;;;5068486;28;20039;-85
2021/05/11 16:55:19;;;;;;;4.30;1.42;;;14.10;99.90;;;;;;5062500;28;20039;-84
2021/05/11 16:57:45;;;;;;;4.13;1.73;;;14.00;99.90;;;;;;5056207;28;20071;-84
2021/05/11 17:00:15;;;;;;;3.70;1.30;;;14.00;99.90;;;;;;5079095;28;20549;-84
2021/05/11 17:02:41;;;;;;;6.78;1.52;;;13.90;99.90;;;;;;5044045;28;20575;-84
2021/05/11 17:05:07;;;;;;;8.13;2.28;;;13.90;99.90;;;;;;5054904;28;20495;-84
2021/05/11 17:07:33;;;;;;;3.53;1.95;;;13.90;99.90;;;;;;5071159;28;20491;-84
2021/05/11 17:09:59;;;;;;;6.75;1.50;;;13.90;99.90;;;;;;5078309;28;20027;-84
2021/05/11 17:12:24;;;;;;;5.75;2.13;;;13.90;99.90;;;;;;5061010;28;20514;-83
2021/05/11 17:14:50;;;;;;;4.93;1.40;;;13.90;99.90;;;;;;5052717;28;20059;-82
2021/05/11 17:17:16;;;;;;;5.28;1.90;;;13.90;99.90;;;;;;5051357;28;20139;-83
2021/05/11 17:19:42;;;;;;;5.10;1.52;;;13.90;99.90;;;;;;5070833;28;20123;-83
2021/05/11 17:22:08;;;;;;;3.55;1.30;;;13.90;99.90;;;;;;5052679;28;20044;-84
2021/05/11 17:24:34;;;;;;;9.35;1.90;;;13.90;99.90;;;;;;5070664;28;20474;-84
2021/05/11 17:27:00;;;;;;;6.03;2.35;;;13.90;99.90;;;;;;5068691;28;20051;-85
2021/05/11 17:29:27;;;;;;;7.22;2.00;;;13.90;99.90;;;;;;5044402;28;20043;-84
2021/05/11 17:31:53;;;;;;;3.40;1.60;;;13.90;99.90;;;;;;5049248;28;20060;-84
2021/05/11 17:34:22;;;;;;;3.90;1.60;;;13.90;99.90;;;;;;5014108;28;20052;-85
2021/05/11 17:36:47;;;;;;;8.02;2.17;;;13.80;99.90;;;;;;5035170;28;20036;-84
2021/05/11 17:39:13;;;;;;;5.32;2.40;;;13.90;99.90;;;;;;5045563;28;20038;-83
2021/05/11 17:41:39;;;;;;;5.90;1.60;;;13.80;99.90;;;;;;5056890;28;20041;-84
2021/05/11 17:44:06;;;;;;;7.05;2.47;;;13.90;99.90;;;;;;5071638;28;20040;-83
2021/05/11 17:46:31;;;;;;;4.30;1.73;;;13.80;99.90;;;;;;5054765;28;20033;-84
2021/05/11 17:48:57;;;;;;;8.30;2.17;;;13.80;99.90;;;;;;5076617;28;20043;-84
2021/05/11 17:51:26;;;;;;;7.32;2.05;;;13.70;99.90;;;;;;5034144;28;20068;-83
2021/05/11 17:53:51;;;;;;;10.55;1.88;;;13.70;99.90;;;;;;5050780;28;20123;-83
2021/05/11 17:56:17;;;;;;;7.28;1.80;;;13.70;99.90;;;;;;5047316;28;20111;-84
2021/05/11 17:58:43;;;;;;;12.38;2.25;;;13.60;99.90;;;;;;5050557;28;20086;-85